createdAt,value
2018-11-26T00:00:36.483Z,26.53
2018-11-26T00:03:08.933Z,30.20
2018-11-26T00:05:37.988Z,29.60
2018-11-26T00:08:07.687Z,30.07
2018-11-26T00:10:47.321Z,28.20
2018-11-26T00:13:15.502Z,26.23
2018-11-26T00:15:43.679Z,27.13
2018-11-26T00:18:11.847Z,26.70
2018-11-26T00:20:40.031Z,30.60
2018-11-26T00:23:08.226Z,28.20
2018-11-26T00:25:36.400Z,28.10
2018-11-26T00:28:04.635Z,26.20
2018-11-26T00:30:32.794Z,25.20
2018-11-26T00:33:00.957Z,26.00
2018-11-26T00:35:29.129Z,25.77
2018-11-26T00:37:57.293Z,25.77
2018-11-26T00:40:25.458Z,25.87
2018-11-26T00:42:53.614Z,27.73
2018-11-26T00:45:21.778Z,27.57
2018-11-26T00:47:49.954Z,28.73
2018-11-26T00:50:18.127Z,28.30
2018-11-26T00:52:46.301Z,25.80
2018-11-26T00:55:14.479Z,28.67
2018-11-26T00:57:42.723Z,26.13
2018-11-26T01:00:12.062Z,26.17
2018-11-26T01:02:40.311Z,27.47
2018-11-26T01:05:10.221Z,26.10
2018-11-26T01:07:38.423Z,24.17
2018-11-26T01:10:06.631Z,25.33
2018-11-26T01:12:34.818Z,24.17
2018-11-26T01:15:03.010Z,26.30
2018-11-26T01:17:31.202Z,28.77
2018-11-26T01:19:59.391Z,25.10
2018-11-26T01:22:27.575Z,28.70
2018-11-26T01:24:55.773Z,22.20
2018-11-26T01:27:23.951Z,28.13
2018-11-26T01:29:52.107Z,22.80
2018-11-26T01:32:20.284Z,18.23
2018-11-26T01:34:48.455Z,22.10
2018-11-26T01:37:16.647Z,21.50
2018-11-26T01:39:45.110Z,24.60
2018-11-26T01:42:13.277Z,24.80
2018-11-26T01:44:41.426Z,22.77
2018-11-26T01:47:09.592Z,21.47
2018-11-26T01:49:37.761Z,25.20
2018-11-26T01:52:06.009Z,23.70
2018-11-26T01:54:34.181Z,22.80
2018-11-26T01:57:02.330Z,23.80
2018-11-26T01:59:30.489Z,23.80
2018-11-26T02:01:58.681Z,23.53
2018-11-26T02:04:26.850Z,25.37
2018-11-26T02:06:54.997Z,25.50
2018-11-26T02:09:23.148Z,22.80
2018-11-26T02:11:51.302Z,23.53
2018-11-26T02:14:19.469Z,19.90
2018-11-26T02:16:47.624Z,21.70
2018-11-26T02:19:15.805Z,24.80
2018-11-26T02:21:43.983Z,24.20
2018-11-26T02:24:12.136Z,23.00
2018-11-26T02:26:40.296Z,22.00
2018-11-26T02:29:08.464Z,23.30
2018-11-26T02:31:36.611Z,18.33
2018-11-26T02:34:04.783Z,22.43
2018-11-26T02:36:32.962Z,23.77
2018-11-26T02:39:01.143Z,19.97
2018-11-26T02:41:29.315Z,22.27
2018-11-26T02:43:57.495Z,21.40
2018-11-26T02:46:25.643Z,20.80
2018-11-26T02:48:53.821Z,22.73
2018-11-26T02:51:21.985Z,19.80
2018-11-26T02:53:50.171Z,23.70
2018-11-26T02:56:18.350Z,22.57
2018-11-26T02:58:46.517Z,21.03
2018-11-26T03:01:14.689Z,22.00
2018-11-26T03:03:42.858Z,21.73
2018-11-26T03:06:11.079Z,21.30
2018-11-26T03:08:39.260Z,19.70
2018-11-26T03:11:07.431Z,22.83
2018-11-26T03:13:35.598Z,20.27
2018-11-26T03:16:03.778Z,19.33
2018-11-26T03:18:31.954Z,18.90
2018-11-26T03:21:00.125Z,18.40
2018-11-26T03:23:28.312Z,18.43
2018-11-26T03:25:56.485Z,18.93
2018-11-26T03:28:24.684Z,23.37
2018-11-26T03:30:52.854Z,19.30
2018-11-26T03:33:21.039Z,21.13
2018-11-26T03:35:49.241Z,19.03
2018-11-26T03:38:54.317Z,20.20
2018-11-26T03:41:23.019Z,19.40
2018-11-26T03:43:51.191Z,18.80
2018-11-26T03:46:19.399Z,20.37
2018-11-26T03:48:47.557Z,21.37
2018-11-26T03:51:15.718Z,22.00
2018-11-26T03:53:43.890Z,20.60
2018-11-26T03:56:12.051Z,20.03
2018-11-26T03:58:40.213Z,23.33
2018-11-26T04:01:08.385Z,18.50
2018-11-26T04:03:36.570Z,19.53
2018-11-26T04:06:04.733Z,21.50
2018-11-26T04:08:32.904Z,20.83
2018-11-26T04:11:01.056Z,24.60
2018-11-26T04:13:29.217Z,20.67
2018-11-26T04:15:57.390Z,21.50
2018-11-26T04:18:25.569Z,20.53
2018-11-26T04:20:53.741Z,21.50
2018-11-26T04:23:21.918Z,23.10
2018-11-26T04:25:50.077Z,22.13
2018-11-26T04:28:18.231Z,23.07
2018-11-26T04:30:46.438Z,23.23
2018-11-26T04:33:14.629Z,20.47
2018-11-26T04:35:42.782Z,22.20
2018-11-26T04:38:10.958Z,19.33
2018-11-26T04:40:39.095Z,23.90
2018-11-26T04:43:07.234Z,24.50
2018-11-26T04:45:35.393Z,25.13
2018-11-26T04:48:03.604Z,20.23
2018-11-26T04:50:31.763Z,22.50
2018-11-26T04:52:59.928Z,25.53
2018-11-26T04:55:28.088Z,24.87
2018-11-26T04:57:56.231Z,25.13
2018-11-26T05:00:24.374Z,26.20
2018-11-26T05:02:52.525Z,31.23
2018-11-26T05:05:20.696Z,28.90
2018-11-26T05:07:48.850Z,27.00
2018-11-26T05:10:17.030Z,30.67
2018-11-26T05:12:45.228Z,28.80
2018-11-26T05:15:13.629Z,23.47
2018-11-26T05:17:41.777Z,27.50
2018-11-26T05:20:11.272Z,28.27
2018-11-26T05:22:39.437Z,29.13
2018-11-26T05:25:08.933Z,26.37
2018-11-26T05:27:37.482Z,27.53
2018-11-26T05:30:08.369Z,26.60
2018-11-26T05:32:36.542Z,23.70
2018-11-26T05:35:05.477Z,25.67
2018-11-26T05:37:33.615Z,26.83
2018-11-26T05:40:01.785Z,28.80
2018-11-26T05:42:29.973Z,29.40
2018-11-26T05:44:58.129Z,26.50
2018-11-26T05:47:26.274Z,31.60
2018-11-26T05:49:54.439Z,34.90
2018-11-26T05:52:22.604Z,29.77
2018-11-26T05:54:50.761Z,25.23
2018-11-26T05:57:18.909Z,26.20
2018-11-26T05:59:47.090Z,25.73
2018-11-26T06:02:15.241Z,28.60
2018-11-26T06:04:43.408Z,27.23
2018-11-26T06:07:11.630Z,30.77
2018-11-26T06:09:39.782Z,25.03
2018-11-26T06:12:07.938Z,28.87
2018-11-26T06:14:36.087Z,29.83
2018-11-26T06:17:04.233Z,32.90
2018-11-26T06:19:32.398Z,32.43
2018-11-26T06:22:00.558Z,28.80
2018-11-26T06:24:28.718Z,29.63
2018-11-26T06:26:56.871Z,33.30
2018-11-26T06:29:25.028Z,34.40
2018-11-26T06:31:53.190Z,33.03
2018-11-26T06:34:21.354Z,28.80
2018-11-26T06:36:49.534Z,29.77
2018-11-26T06:39:17.702Z,34.83
2018-11-26T06:41:45.853Z,29.80
2018-11-26T06:44:14.026Z,28.93
2018-11-26T06:46:42.210Z,29.13
2018-11-26T06:49:10.374Z,31.90
2018-11-26T06:51:38.575Z,30.47
2018-11-26T06:54:06.897Z,34.93
2018-11-26T06:56:35.082Z,34.97
2018-11-26T06:59:03.264Z,36.57
2018-11-26T07:01:31.417Z,34.70
2018-11-26T07:03:59.578Z,39.50
2018-11-26T07:06:27.751Z,34.60
2018-11-26T07:08:55.971Z,33.50
2018-11-26T07:11:24.149Z,49.63
2018-11-26T07:13:52.558Z,34.67
2018-11-26T07:16:20.713Z,36.30
2018-11-26T07:18:48.962Z,42.63
2018-11-26T07:21:17.137Z,34.23
2018-11-26T07:23:45.298Z,42.33
2018-11-26T07:26:13.481Z,36.17
2018-11-26T07:28:41.762Z,31.60
2018-11-26T07:31:09.995Z,37.70
2018-11-26T07:33:38.158Z,36.67
2018-11-26T07:36:11.179Z,36.80
2018-11-26T07:38:34.526Z,34.90
2018-11-26T07:41:02.737Z,34.63
2018-11-26T07:43:30.900Z,36.63
2018-11-26T07:45:59.073Z,33.73
2018-11-26T07:48:27.222Z,35.10
2018-11-26T07:50:55.371Z,32.43
2018-11-26T07:53:23.532Z,32.73
2018-11-26T07:55:51.726Z,36.47
2018-11-26T07:58:19.886Z,40.20
2018-11-26T08:00:48.108Z,37.23
2018-11-26T08:03:17.277Z,35.80
2018-11-26T08:05:45.431Z,37.80
2018-11-26T08:08:15.102Z,35.37
2018-11-26T08:10:43.266Z,31.60
2018-11-26T08:13:12.925Z,36.17
2018-11-26T08:15:41.148Z,34.97
2018-11-26T08:18:10.834Z,40.63
2018-11-26T08:20:39.103Z,36.93
2018-11-26T08:23:07.466Z,32.83
2018-11-26T08:25:38.584Z,35.03
2018-11-26T08:28:07.205Z,34.53
2018-11-26T08:30:35.418Z,33.57
2018-11-26T08:33:03.569Z,33.20
2018-11-26T08:35:31.790Z,37.97
2018-11-26T08:38:05.299Z,39.97
2018-11-26T08:40:38.845Z,38.97
2018-11-26T08:43:07.003Z,38.37
2018-11-26T08:45:37.730Z,37.13
2018-11-26T08:48:11.848Z,35.10
2018-11-26T08:50:40.027Z,40.03
2018-11-26T08:53:08.186Z,38.87
2018-11-26T08:55:36.359Z,36.63
2018-11-26T08:58:05.011Z,38.13
2018-11-26T09:00:33.181Z,36.13
2018-11-26T09:03:03.300Z,36.93
2018-11-26T09:05:36.886Z,34.47
2018-11-26T09:08:05.049Z,32.50
2018-11-26T09:10:33.214Z,34.00
2018-11-26T09:13:01.433Z,33.63
2018-11-26T09:15:29.602Z,34.90
2018-11-26T09:17:57.778Z,33.93
2018-11-26T09:20:25.941Z,39.07
2018-11-26T09:22:54.094Z,35.23
2018-11-26T09:25:22.250Z,36.10
2018-11-26T09:27:50.537Z,33.93
2018-11-26T09:30:18.702Z,34.53
2018-11-26T09:32:46.850Z,38.30
2018-11-26T09:35:16.118Z,32.27
2018-11-26T09:37:44.275Z,30.87
2018-11-26T09:40:15.385Z,32.40
2018-11-26T09:42:43.587Z,33.23
2018-11-26T09:45:14.841Z,30.90
2018-11-26T09:47:42.993Z,33.50
2018-11-26T09:50:16.302Z,32.93
2018-11-26T09:52:44.487Z,33.80
2018-11-26T09:55:13.754Z,34.17
2018-11-26T09:57:41.914Z,32.77
2018-11-26T10:00:13.500Z,32.43
2018-11-26T10:02:42.617Z,34.23
2018-11-26T10:05:18.342Z,31.97
2018-11-26T10:07:46.527Z,32.50
2018-11-26T10:10:14.761Z,32.60
2018-11-26T10:12:43.683Z,38.57
2018-11-26T10:15:18.805Z,36.27
2018-11-26T10:17:47.274Z,34.23
2018-11-26T10:20:15.746Z,37.73
2018-11-26T10:22:44.698Z,34.27
2018-11-26T10:25:17.118Z,35.93
2018-11-26T10:27:45.289Z,34.40
2018-11-26T10:30:14.434Z,35.83
2018-11-26T10:32:42.922Z,32.60
2018-11-26T10:35:12.078Z,33.10
2018-11-26T10:37:40.237Z,31.93
2018-11-26T10:40:10.694Z,31.07
2018-11-26T10:42:38.969Z,35.57
2018-11-26T10:45:09.728Z,34.77
2018-11-26T10:47:37.876Z,31.60
2018-11-26T10:50:08.790Z,37.90
2018-11-26T10:52:36.939Z,35.90
2018-11-26T10:55:07.306Z,35.03
2018-11-26T10:57:35.453Z,32.80
2018-11-26T11:00:03.743Z,34.37
2018-11-26T11:02:37.298Z,32.90
2018-11-26T11:05:06.125Z,34.37
2018-11-26T11:07:34.285Z,31.73
2018-11-26T11:10:02.455Z,32.53
2018-11-26T11:12:30.592Z,31.00
2018-11-26T11:14:58.746Z,30.27
2018-11-26T11:17:26.906Z,36.20
2018-11-26T11:19:55.167Z,36.60
2018-11-26T11:22:24.235Z,36.50
2018-11-26T11:24:52.622Z,32.03
2018-11-26T11:27:20.786Z,34.60
2018-11-26T11:29:49.035Z,38.83
2018-11-26T11:32:17.251Z,34.37
2018-11-26T11:34:45.427Z,32.60
2018-11-26T11:37:13.787Z,33.57
2018-11-26T11:39:41.952Z,27.97
2018-11-26T11:42:10.117Z,28.20
2018-11-26T11:44:38.278Z,30.97
2018-11-26T11:47:06.443Z,28.03
2018-11-26T11:49:34.828Z,27.47
2018-11-26T11:52:03.114Z,28.90
2018-11-26T11:54:31.844Z,28.23
2018-11-26T11:57:00.350Z,23.90
2018-11-26T11:59:28.760Z,23.50
2018-11-26T12:01:56.968Z,23.90
2018-11-26T12:04:25.100Z,27.47
2018-11-26T12:06:53.358Z,26.37
2018-11-26T12:09:21.552Z,23.70
2018-11-26T12:11:49.731Z,21.87
2018-11-26T12:14:17.948Z,22.37
2018-11-26T12:16:46.702Z,24.93
2018-11-26T12:19:14.872Z,22.63
2018-11-26T12:21:45.288Z,25.23
2018-11-26T12:24:14.191Z,24.47
2018-11-26T12:26:42.409Z,25.40
2018-11-26T12:29:10.593Z,24.57
2018-11-26T12:31:38.881Z,22.80
2018-11-26T12:34:07.057Z,25.27
2018-11-26T12:36:35.267Z,24.40
2018-11-26T12:39:03.526Z,26.60
2018-11-26T12:41:31.855Z,23.70
2018-11-26T12:44:00.037Z,23.83
2018-11-26T12:46:28.192Z,23.77
2018-11-26T12:48:56.369Z,23.57
2018-11-26T12:51:24.527Z,26.23
2018-11-26T12:53:52.688Z,23.43
2018-11-26T12:56:20.894Z,26.17
2018-11-26T12:58:49.076Z,24.23
2018-11-26T13:01:17.263Z,25.47
2018-11-26T13:03:45.441Z,28.10
2018-11-26T13:06:13.607Z,22.77
2018-11-26T13:08:41.798Z,23.30
2018-11-26T13:11:10.015Z,28.27
2018-11-26T13:13:38.196Z,25.83
2018-11-26T13:16:07.375Z,27.73
2018-11-26T13:18:35.599Z,31.23
2018-11-26T13:21:03.774Z,29.03
2018-11-26T13:23:32.207Z,28.87
2018-11-26T13:26:00.652Z,25.63
2018-11-26T13:28:29.061Z,25.90
2018-11-26T13:30:57.602Z,25.80
2018-11-26T13:33:25.794Z,24.00
2018-11-26T13:35:53.978Z,27.33
2018-11-26T13:38:22.523Z,27.20
2018-11-26T13:40:50.699Z,22.23
2018-11-26T13:43:19.295Z,30.20
2018-11-26T13:45:48.692Z,29.10
2018-11-26T13:48:20.024Z,28.93
2018-11-26T13:50:51.679Z,27.43
2018-11-26T13:53:19.851Z,30.10
2018-11-26T13:55:48.036Z,29.23
2018-11-26T13:58:16.211Z,26.83
2018-11-26T14:00:44.375Z,32.63
2018-11-26T14:03:12.551Z,21.57
2018-11-26T14:05:40.727Z,21.50
2018-11-26T14:08:08.895Z,24.97
2018-11-26T14:10:37.057Z,21.63
2018-11-26T14:13:08.903Z,24.20
2018-11-26T14:15:37.060Z,25.03
2018-11-26T14:18:05.292Z,25.67
2018-11-26T14:20:33.479Z,26.20
2018-11-26T14:23:01.634Z,31.10
2018-11-26T14:25:29.783Z,30.73
2018-11-26T14:28:01.411Z,27.27
2018-11-26T14:30:30.007Z,28.10
2018-11-26T14:32:58.264Z,27.73
2018-11-26T14:35:26.524Z,26.20
2018-11-26T14:37:56.807Z,26.80
2018-11-26T14:40:30.171Z,28.30
2018-11-26T14:42:58.328Z,29.43
2018-11-26T14:45:26.507Z,35.10
2018-11-26T14:47:54.684Z,30.70
2018-11-26T14:50:22.828Z,33.47
2018-11-26T14:52:51.032Z,30.80
2018-11-26T14:55:21.351Z,28.33
2018-11-26T14:57:49.520Z,26.83
2018-11-26T15:00:18.317Z,27.80
2018-11-26T15:02:46.774Z,27.83
2018-11-26T15:05:15.013Z,29.17
2018-11-26T15:07:43.276Z,26.90
2018-11-26T15:10:12.527Z,27.63
2018-11-26T15:12:40.707Z,35.47
2018-11-26T15:15:12.815Z,29.63
2018-11-26T15:17:41.894Z,33.00
2018-11-26T15:20:14.152Z,32.20
2018-11-26T15:22:42.307Z,34.40
2018-11-26T15:25:11.831Z,37.37
2018-11-26T15:27:40.020Z,37.30
2018-11-26T15:30:10.828Z,36.80
2018-11-26T15:32:39.117Z,32.97
2018-11-26T15:35:11.691Z,26.50
2018-11-26T15:37:39.875Z,22.87
2018-11-26T15:40:09.076Z,30.87
2018-11-26T15:42:37.360Z,24.03
2018-11-26T15:45:09.509Z,23.70
2018-11-26T15:47:37.718Z,24.90
2018-11-26T15:50:06.169Z,24.37
2018-11-26T15:52:34.330Z,23.23
2018-11-26T15:55:02.495Z,23.93
2018-11-26T15:57:30.655Z,22.33
2018-11-26T15:59:58.827Z,26.63
2018-11-26T16:08:20.476Z,24.67
2018-11-26T16:10:48.643Z,24.37
2018-11-26T16:13:16.851Z,23.50
2018-11-26T16:15:45.473Z,20.33
2018-11-26T16:18:15.698Z,20.27
2018-11-26T16:20:43.851Z,27.50
2018-11-26T16:23:12.055Z,46.47
2018-11-26T16:25:42.527Z,21.80
2018-11-26T16:28:12.482Z,23.70
2018-11-26T16:30:40.650Z,21.87
2018-11-26T16:33:09.440Z,19.63
2018-11-26T16:35:37.616Z,19.90
2018-11-26T16:38:06.284Z,17.50
2018-11-26T16:40:34.455Z,19.00
2018-11-26T16:43:02.691Z,15.97
2018-11-26T16:45:30.887Z,17.60
2018-11-26T16:47:59.331Z,14.47
2018-11-26T16:50:29.929Z,13.17
2018-11-26T16:52:58.096Z,15.17
2018-11-26T16:55:26.321Z,12.00
2018-11-26T16:57:54.491Z,12.20
2018-11-26T17:00:24.658Z,12.80
2018-11-26T17:02:53.870Z,14.90
2018-11-26T17:05:24.610Z,10.50
2018-11-26T17:07:52.761Z,11.77
2018-11-26T17:10:20.903Z,13.07
2018-11-26T17:12:49.060Z,15.80
2018-11-26T17:15:18.049Z,14.87
2018-11-26T17:17:46.273Z,16.20
2018-11-26T17:20:15.320Z,13.93
2018-11-26T17:22:43.635Z,13.60
2018-11-26T17:25:12.779Z,12.97
2018-11-26T17:27:41.436Z,12.47
2018-11-26T17:30:14.644Z,15.50
2018-11-26T17:32:42.870Z,13.03
2018-11-26T17:35:12.411Z,12.17
2018-11-26T17:37:42.833Z,13.07
2018-11-26T17:40:10.711Z,13.73
2018-11-26T17:42:38.883Z,14.30
2018-11-26T17:45:10.729Z,13.83
2018-11-26T17:47:39.166Z,13.17
2018-11-26T17:50:12.012Z,16.23
2018-11-26T17:52:40.140Z,13.90
2018-11-26T17:55:09.069Z,13.73
2018-11-26T17:57:37.244Z,16.40
2018-11-26T18:00:15.473Z,13.83
2018-11-26T18:02:44.515Z,15.40
2018-11-26T18:05:16.195Z,16.17
2018-11-26T18:07:44.961Z,17.83
2018-11-26T18:10:14.479Z,17.57
2018-11-26T18:12:42.669Z,17.30
2018-11-26T18:15:12.136Z,16.97
2018-11-26T18:17:40.301Z,16.93
2018-11-26T18:20:11.262Z,18.30
2018-11-26T18:22:39.454Z,18.70
2018-11-26T18:25:09.158Z,16.90
2018-11-26T18:27:37.618Z,21.60
2018-11-26T18:30:13.995Z,17.50
2018-11-26T18:32:42.166Z,19.23
2018-11-26T18:35:10.389Z,19.83
2018-11-26T18:37:38.579Z,21.70
2018-11-26T18:40:09.967Z,17.10
2018-11-26T18:42:38.119Z,18.20
2018-11-26T18:45:09.691Z,18.97
2018-11-26T18:47:37.884Z,16.47
2018-11-26T18:50:09.691Z,16.57
2018-11-26T18:52:37.925Z,19.90
2018-11-26T18:55:07.095Z,18.70
2018-11-26T18:57:35.388Z,19.43
2018-11-26T19:00:10.223Z,18.50
2018-11-26T19:02:38.484Z,20.40
2018-11-26T19:05:07.568Z,18.80
2018-11-26T19:07:35.759Z,21.23
2018-11-26T19:10:07.097Z,19.70
2018-11-26T19:12:35.264Z,16.60
2018-11-26T19:15:03.429Z,19.27
2018-11-26T19:17:31.649Z,17.47
2018-11-26T19:19:59.886Z,22.37
2018-11-26T19:22:28.068Z,20.57
2018-11-26T19:24:56.263Z,20.73
2018-11-26T19:27:24.470Z,20.50
2018-11-26T19:29:52.635Z,19.43
2018-11-26T19:32:20.884Z,19.50
2018-11-26T19:34:49.055Z,22.53
2018-11-26T19:37:17.227Z,19.73
2018-11-26T19:39:45.399Z,17.13
2018-11-26T19:42:14.101Z,20.37
2018-11-26T19:44:42.301Z,18.83
2018-11-26T19:47:10.506Z,20.67
2018-11-26T19:49:38.659Z,21.53
2018-11-26T19:52:06.840Z,19.30
2018-11-26T19:54:35.036Z,20.37
2018-11-26T19:57:03.217Z,19.33
2018-11-26T19:59:34.206Z,22.60
2018-11-26T20:02:03.187Z,21.30
2018-11-26T20:04:38.600Z,25.23
2018-11-26T20:07:07.055Z,22.60
2018-11-26T20:09:35.217Z,24.33
2018-11-26T20:12:03.436Z,23.10
2018-11-26T20:14:31.648Z,21.13
2018-11-26T20:16:59.822Z,24.27
2018-11-26T20:19:28.051Z,27.10
2018-11-26T20:21:56.279Z,25.43
2018-11-26T20:24:24.494Z,23.23
2018-11-26T20:26:52.670Z,24.50
2018-11-26T20:29:20.872Z,23.03
2018-11-26T20:31:49.061Z,22.50
2018-11-26T20:34:17.280Z,26.07
2018-11-26T20:36:45.464Z,27.13
2018-11-26T20:39:13.658Z,28.37
2018-11-26T20:41:41.866Z,29.30
2018-11-26T20:44:10.097Z,25.30
2018-11-26T20:46:38.311Z,28.67
2018-11-26T20:49:07.856Z,27.60
2018-11-26T20:51:36.055Z,28.43
2018-11-26T20:54:04.234Z,24.20
2018-11-26T20:56:32.429Z,25.93
2018-11-26T20:59:00.648Z,27.23
2018-11-26T21:01:28.822Z,24.77
2018-11-26T21:03:57.001Z,27.30
2018-11-26T21:06:25.198Z,29.20
2018-11-26T21:08:53.396Z,28.93
2018-11-26T21:11:21.603Z,31.80
2018-11-26T21:13:49.782Z,30.13
2018-11-26T21:16:19.026Z,34.87
2018-11-26T21:18:47.295Z,32.20
2018-11-26T21:21:15.686Z,33.43
2018-11-26T21:23:43.877Z,37.17
2018-11-26T21:26:12.079Z,41.20
2018-11-26T21:28:40.272Z,37.47
2018-11-26T21:31:08.530Z,42.13
2018-11-26T21:33:36.703Z,40.47
2018-11-26T21:36:05.007Z,39.53
2018-11-26T21:38:34.795Z,41.63
2018-11-26T21:41:02.984Z,38.83
2018-11-26T21:43:31.160Z,40.10
2018-11-26T21:46:00.336Z,38.10
2018-11-26T21:48:28.546Z,36.43
2018-11-26T21:50:56.675Z,40.63
2018-11-26T21:53:24.854Z,38.87
2018-11-26T21:55:53.115Z,41.17
2018-11-26T21:58:21.300Z,44.63
2018-11-26T22:00:50.715Z,40.20
2018-11-26T22:03:18.914Z,43.07
2018-11-26T22:05:47.083Z,41.50
2018-11-26T22:08:15.275Z,43.40
2018-11-26T22:10:44.158Z,46.53
2018-11-26T22:13:14.007Z,42.10
2018-11-26T22:15:42.211Z,44.40
2018-11-26T22:18:10.409Z,44.33
2018-11-26T22:20:38.603Z,44.10
2018-11-26T22:23:07.647Z,49.03
2018-11-26T22:25:35.876Z,46.80
2018-11-26T22:28:05.426Z,46.03
2018-11-26T22:30:34.415Z,46.30
2018-11-26T22:33:02.658Z,48.90
2018-11-26T22:35:30.844Z,47.03
2018-11-26T22:37:59.022Z,53.70
2018-11-26T22:40:27.363Z,48.40
2018-11-26T22:42:55.623Z,43.80
2018-11-26T22:45:26.564Z,49.80
2018-11-26T22:47:56.036Z,48.13
2018-11-26T22:50:24.258Z,44.80
2018-11-26T22:52:52.451Z,53.10
2018-11-26T22:55:20.649Z,51.67
2018-11-26T22:57:48.845Z,45.87
2018-11-26T23:00:24.595Z,51.00
2018-11-26T23:02:53.962Z,47.43
2018-11-26T23:05:22.162Z,45.43
2018-11-26T23:07:50.351Z,49.43
2018-11-26T23:10:18.532Z,45.80
2018-11-26T23:12:46.727Z,55.47
2018-11-26T23:15:15.347Z,48.20
2018-11-26T23:17:44.179Z,47.57
2018-11-26T23:20:15.275Z,50.00
2018-11-26T23:22:43.523Z,55.40
2018-11-26T23:25:13.754Z,55.13
2018-11-26T23:27:41.991Z,53.70
2018-11-26T23:30:20.360Z,49.60
2018-11-26T23:32:49.863Z,48.00
2018-11-26T23:35:18.053Z,52.07
2018-11-26T23:37:46.211Z,47.33
2018-11-26T23:40:14.396Z,50.20
2018-11-26T23:42:42.559Z,49.40
2018-11-26T23:45:20.545Z,48.60
2018-11-26T23:47:48.710Z,51.73
2018-11-26T23:50:17.432Z,50.17
2018-11-26T23:52:46.016Z,45.57
2018-11-26T23:55:17.064Z,49.87
2018-11-26T23:57:45.223Z,55.63
